Time;durP1;ratioP1;P1;durP2;ratioP2;P2;SDS_P1;SDS_P2;PMS_P1;PMS_P2;Temp;Humidity;BMP_temperature;BMP_pressure;BME280_temperature;BME280_humidity;BME280_pressure;Samples;Min_cycle;Max_cycle;Signal;HPM_P1;HPM_P2
2021/12/02 00:02:03;;;;;;;6.32;1.40;;;4.00;99.90;;;;;;4957911;28;20124;-83
2021/12/02 00:04:31;;;;;;;11.07;1.33;;;3.90;99.90;;;;;;4971903;28;20824;-83
2021/12/02 00:06:57;;;;;;;7.20;1.30;;;4.00;99.90;;;;;;4961607;28;20044;-82
2021/12/02 00:09:23;;;;;;;8.50;1.40;;;3.90;99.90;;;;;;4960369;28;20556;-82
2021/12/02 00:11:49;;;;;;;11.90;1.48;;;3.80;99.90;;;;;;4926593;28;20513;-83
2021/12/02 00:14:22;;;;;;;8.52;1.27;;;3.80;99.90;;;;;;4955640;28;20073;-82
2021/12/02 00:22:11;;;;;;;10.05;1.10;;;3.70;99.90;;;;;;4954192;28;20544;-83
2021/12/02 00:24:39;;;;;;;7.70;1.20;;;3.70;99.90;;;;;;4958029;28;20041;-83
2021/12/02 00:27:07;;;;;;;5.88;1.20;;;3.70;99.90;;;;;;4955637;28;20045;-83
2021/12/02 00:29:34;;;;;;;10.13;1.45;;;3.70;99.90;;;;;;4954940;28;20056;-83
2021/12/02 00:32:06;;;;;;;12.05;1.48;;;3.70;99.90;;;;;;4952739;28;20080;-84
2021/12/02 00:34:33;;;;;;;11.50;1.65;;;3.70;99.90;;;;;;4959464;28;20052;-83
2021/12/02 00:37:01;;;;;;;10.30;1.50;;;3.70;99.90;;;;;;4938458;28;20045;-83
2021/12/02 00:39:29;;;;;;;8.68;1.30;;;3.70;99.90;;;;;;4980058;28;20128;-83
2021/12/02 00:41:55;;;;;;;9.13;1.33;;;3.80;99.90;;;;;;4971251;28;20142;-83
2021/12/02 00:44:22;;;;;;;6.32;1.35;;;3.80;99.90;;;;;;4956912;28;20486;-83
2021/12/02 00:46:49;;;;;;;10.85;1.60;;;3.80;99.90;;;;;;4940798;28;21639;-83
2021/12/02 00:49:18;;;;;;;7.85;1.42;;;3.90;99.90;;;;;;4984178;28;20514;-83
2021/12/02 00:51:57;;;;;;;9.10;1.75;;;4.00;99.90;;;;;;4956843;28;20060;-83
2021/12/02 00:54:25;;;;;;;8.70;1.50;;;4.00;99.90;;;;;;4957068;28;20480;-82
2021/12/02 00:56:51;;;;;;;9.60;1.40;;;4.00;99.90;;;;;;4958731;28;20052;-82
2021/12/02 00:59:19;;;;;;;7.65;1.42;;;4.00;99.90;;;;;;4961540;28;22060;-83
2021/12/02 01:01:48;;;;;;;7.68;1.50;;;4.00;99.90;;;;;;4958958;28;20057;-83
2021/12/02 01:04:21;;;;;;;11.02;1.50;;;4.00;99.90;;;;;;4956937;28;20160;-82
2021/12/02 01:06:47;;;;;;;11.10;1.65;;;3.90;99.90;;;;;;4956973;28;20941;-83
2021/12/02 01:09:13;;;;;;;10.15;1.60;;;3.90;99.90;;;;;;4954557;28;20131;-83
2021/12/02 01:11:40;;;;;;;10.00;1.48;;;3.80;99.90;;;;;;4975463;28;20395;-82
2021/12/02 01:14:07;;;;;;;8.32;1.38;;;3.80;99.90;;;;;;4958260;28;20550;-83
2021/12/02 01:16:34;;;;;;;10.20;1.50;;;3.80;99.90;;;;;;4972150;28;20881;-83
2021/12/02 01:19:00;;;;;;;13.13;1.75;;;3.80;99.90;;;;;;4954937;28;20124;-83
2021/12/02 01:21:28;;;;;;;8.82;1.30;;;3.90;99.90;;;;;;4961973;28;20517;-83
2021/12/02 01:24:05;;;;;;;10.82;1.50;;;3.90;99.90;;;;;;4961953;28;20060;-83
2021/12/02 01:26:33;;;;;;;9.82;1.55;;;3.90;99.90;;;;;;4962173;28;20784;-83
2021/12/02 01:29:01;;;;;;;9.65;1.80;;;3.80;99.90;;;;;;4961999;28;20222;-82
2021/12/02 01:31:36;;;;;;;7.80;1.33;;;3.80;99.90;;;;;;4984736;28;20056;-83
2021/12/02 01:34:08;;;;;;;9.80;1.40;;;3.80;99.90;;;;;;4982786;28;20068;-83
2021/12/02 01:36:39;;;;;;;7.90;1.27;;;3.70;99.90;;;;;;4964341;28;20785;-83
2021/12/02 01:39:07;;;;;;;8.70;1.45;;;3.70;99.90;;;;;;4975832;28;20067;-83
2021/12/02 01:41:48;;;;;;;6.05;1.30;;;3.70;99.90;;;;;;4978019;28;20049;-83
2021/12/02 01:44:16;;;;;;;7.32;1.02;;;3.70;99.90;;;;;;4963398;28;20033;-82
2021/12/02 01:46:42;;;;;;;4.80;1.10;;;3.60;99.90;;;;;;4957687;28;20618;-83
2021/12/02 01:49:11;;;;;;;8.23;1.08;;;3.60;99.90;;;;;;4932927;28;20256;-83
2021/12/02 01:51:40;;;;;;;8.98;1.30;;;3.60;99.90;;;;;;4955413;28;20564;-84
2021/12/02 01:54:11;;;;;;;5.47;1.10;;;3.50;99.90;;;;;;4955358;28;20540;-82
2021/12/02 01:56:49;;;;;;;9.63;1.83;;;3.50;99.90;;;;;;4958242;28;20893;-83
2021/12/02 01:59:19;;;;;;;7.35;1.30;;;3.50;99.90;;;;;;4959107;28;20565;-82
2021/12/02 02:01:49;;;;;;;7.05;1.23;;;3.50;99.90;;;;;;4962064;28;20057;-82
2021/12/02 02:04:16;;;;;;;6.80;1.13;;;3.50;99.90;;;;;;4962813;28;20173;-82
2021/12/02 02:07:01;;;;;;;6.55;0.90;;;3.50;99.90;;;;;;4962119;28;20241;-82
2021/12/02 02:09:30;;;;;;;6.50;1.10;;;3.50;99.90;;;;;;4961645;28;20053;-83
2021/12/02 02:11:56;;;;;;;7.32;1.20;;;3.50;99.90;;;;;;4961466;28;20045;-82
2021/12/02 02:14:25;;;;;;;8.20;1.30;;;3.60;99.90;;;;;;4961958;28;20509;-83
2021/12/02 02:16:57;;;;;;;8.10;1.40;;;3.60;99.90;;;;;;4960199;28;20053;-82
2021/12/02 02:19:28;;;;;;;9.13;1.33;;;3.70;99.90;;;;;;4961221;28;20045;-82
2021/12/02 02:21:54;;;;;;;6.78;1.52;;;3.70;99.90;;;;;;4954547;28;20544;-82
2021/12/02 02:24:20;;;;;;;7.65;1.25;;;3.80;99.90;;;;;;4960192;28;20845;-83
2021/12/02 02:26:46;;;;;;;8.40;1.40;;;3.80;99.90;;;;;;4989031;28;20072;-82
2021/12/02 02:29:14;;;;;;;9.30;1.27;;;3.80;99.90;;;;;;4960927;28;20081;-81
2021/12/02 02:31:42;;;;;;;9.45;1.30;;;3.90;99.90;;;;;;4962377;28;20041;-82
2021/12/02 02:34:09;;;;;;;6.20;1.25;;;3.90;99.90;;;;;;4961079;28;20421;-82
2021/12/02 02:36:38;;;;;;;5.20;1.10;;;4.00;99.90;;;;;;4955885;28;20065;-81
2021/12/02 02:39:05;;;;;;;10.50;1.65;;;4.00;99.90;;;;;;4955544;28;20512;-81
2021/12/02 02:41:35;;;;;;;8.15;1.40;;;4.00;99.90;;;;;;4984348;28;20060;-80
2021/12/02 02:44:02;;;;;;;6.07;1.15;;;3.90;99.90;;;;;;4959469;28;20087;-80
2021/12/02 02:46:31;;;;;;;6.00;1.23;;;3.90;99.90;;;;;;4946493;28;20041;-80
2021/12/02 02:48:59;;;;;;;8.23;1.55;;;3.80;99.90;;;;;;4955826;28;20215;-80
2021/12/02 02:51:26;;;;;;;8.52;1.00;;;3.80;99.90;;;;;;4961593;28;20049;-80
2021/12/02 02:53:56;;;;;;;5.95;0.90;;;3.70;99.90;;;;;;4959626;28;20044;-80
2021/12/02 02:56:27;;;;;;;8.02;1.00;;;3.70;99.90;;;;;;4951426;28;20058;-80
2021/12/02 03:01:33;;;;;;;7.35;1.17;;;3.50;99.90;;;;;;4958631;28;20056;-80
2021/12/02 03:04:21;;;;;;;6.03;0.90;;;3.40;99.90;;;;;;4960987;28;20266;-80
2021/12/02 03:06:53;;;;;;;6.70;1.00;;;3.30;99.90;;;;;;4966454;28;20380;-80
2021/12/02 03:17:11;;;;;;;7.95;1.25;;;3.10;99.90;;;;;;4954683;28;20079;-80
2021/12/02 03:19:42;;;;;;;4.97;1.00;;;3.00;99.90;;;;;;4951773;28;20427;-80
2021/12/02 03:22:09;;;;;;;2.05;0.63;;;2.90;99.90;;;;;;4948906;28;20041;-80
2021/12/02 03:24:35;;;;;;;3.50;0.80;;;2.90;99.90;;;;;;4955214;28;20237;-80
2021/12/02 03:27:02;;;;;;;5.18;0.73;;;2.90;99.90;;;;;;4952544;28;20250;-80
2021/12/02 03:29:28;;;;;;;3.08;0.70;;;2.80;99.90;;;;;;4985630;28;20378;-80
2021/12/02 03:31:53;;;;;;;5.85;1.02;;;2.80;99.90;;;;;;4950670;28;21058;-80
2021/12/02 03:34:19;;;;;;;4.32;0.75;;;2.80;99.90;;;;;;4940976;28;20461;-81
2021/12/02 03:36:52;;;;;;;4.55;0.70;;;2.80;99.90;;;;;;4978750;28;20572;-80
2021/12/02 03:39:18;;;;;;;5.30;0.88;;;2.80;99.90;;;;;;4944250;28;20542;-80
2021/12/02 03:41:45;;;;;;;5.93;1.05;;;2.70;99.90;;;;;;4954460;28;20060;-80
2021/12/02 03:44:11;;;;;;;5.28;0.82;;;2.70;99.90;;;;;;4954610;28;20053;-80
2021/12/02 03:46:40;;;;;;;4.00;0.75;;;2.60;99.90;;;;;;4949262;28;20315;-80
2021/12/02 03:49:06;;;;;;;3.30;0.70;;;2.60;99.90;;;;;;4953256;28;20854;-80
2021/12/02 03:51:33;;;;;;;2.95;0.50;;;2.60;99.90;;;;;;4938007;28;20040;-80
2021/12/02 03:53:59;;;;;;;4.45;0.60;;;2.50;99.90;;;;;;4973357;28;20141;-80
2021/12/02 03:56:25;;;;;;;2.13;0.50;;;2.50;99.90;;;;;;4957571;28;20052;-80
2021/12/02 03:58:52;;;;;;;3.03;0.52;;;2.50;99.90;;;;;;4947909;28;20470;-80
2021/12/02 04:01:19;;;;;;;1.75;0.63;;;2.50;99.90;;;;;;4989009;28;20083;-80
2021/12/02 04:03:45;;;;;;;1.73;0.50;;;2.40;99.90;;;;;;4961844;28;20053;-81
2021/12/02 04:06:11;;;;;;;2.60;0.70;;;2.40;99.90;;;;;;4958623;28;20048;-80
2021/12/02 04:11:25;;;;;;;2.80;0.70;;;2.20;99.90;;;;;;4986083;28;20061;-80
2021/12/02 04:14:02;;;;;;;4.85;0.98;;;2.20;99.90;;;;;;4955369;28;20072;-80
2021/12/02 04:16:30;;;;;;;4.20;0.80;;;2.10;99.90;;;;;;4950770;28;20524;-80
2021/12/02 04:18:56;;;;;;;3.42;0.63;;;2.10;99.90;;;;;;4953224;28;20053;-80
2021/12/02 04:21:22;;;;;;;3.17;0.63;;;2.00;99.90;;;;;;4952637;28;20191;-80
2021/12/02 04:23:48;;;;;;;5.40;0.75;;;2.10;99.90;;;;;;4949885;28;20045;-80
2021/12/02 04:26:14;;;;;;;5.35;0.73;;;2.10;99.90;;;;;;4950213;28;20045;-80
2021/12/02 04:28:40;;;;;;;5.32;0.80;;;2.10;99.90;;;;;;4954658;28;20107;-80
2021/12/02 04:31:06;;;;;;;6.35;0.90;;;2.10;99.90;;;;;;4955150;28;20531;-80
2021/12/02 04:33:32;;;;;;;2.85;0.70;;;2.20;99.90;;;;;;4980602;28;20462;-79
2021/12/02 04:36:00;;;;;;;5.00;0.82;;;2.20;99.90;;;;;;4979691;28;20047;-80
2021/12/02 04:38:27;;;;;;;5.68;1.08;;;2.20;99.90;;;;;;4966116;28;20049;-82
2021/12/02 04:40:54;;;;;;;5.55;0.80;;;2.30;99.90;;;;;;4952467;28;20052;-80
2021/12/02 04:43:20;;;;;;;6.80;0.88;;;2.20;99.90;;;;;;4959870;28;20546;-80
2021/12/02 04:45:46;;;;;;;3.67;0.60;;;2.30;99.90;;;;;;4953040;28;20057;-81
2021/12/02 04:48:12;;;;;;;5.55;0.80;;;2.30;99.90;;;;;;4978629;28;20542;-81
2021/12/02 04:50:39;;;;;;;5.57;0.80;;;2.30;99.90;;;;;;4948059;28;20066;-81
2021/12/02 04:53:04;;;;;;;3.95;0.80;;;2.40;99.90;;;;;;4957692;28;20648;-80
2021/12/02 04:55:30;;;;;;;2.88;0.60;;;2.50;99.90;;;;;;4957118;28;20978;-80
2021/12/02 04:57:56;;;;;;;2.30;0.73;;;2.40;99.90;;;;;;4961246;28;20096;-80
2021/12/02 05:00:22;;;;;;;2.83;0.80;;;2.40;99.90;;;;;;4955280;28;20111;-80
2021/12/02 05:02:48;;;;;;;6.15;0.90;;;2.40;99.90;;;;;;4985349;28;20057;-81
2021/12/02 05:05:14;;;;;;;3.22;0.75;;;2.50;99.90;;;;;;4972329;28;20127;-81
2021/12/02 05:07:39;;;;;;;4.40;0.90;;;2.50;99.90;;;;;;4960492;28;20052;-80
2021/12/02 05:10:07;;;;;;;4.85;0.80;;;2.40;99.90;;;;;;4974232;28;20247;-80
2021/12/02 05:12:33;;;;;;;4.97;1.00;;;2.30;99.90;;;;;;4971353;28;20044;-80
2021/12/02 05:14:59;;;;;;;3.35;0.90;;;2.30;99.90;;;;;;4960971;28;20373;-80
2021/12/02 05:17:25;;;;;;;2.75;0.82;;;2.30;99.90;;;;;;4959515;28;20102;-80
2021/12/02 05:19:51;;;;;;;3.83;0.95;;;2.30;99.90;;;;;;4963636;28;20052;-80
2021/12/02 05:22:17;;;;;;;3.95;0.75;;;2.30;99.90;;;;;;4960340;28;20163;-81
2021/12/02 05:24:43;;;;;;;7.32;1.00;;;2.30;99.90;;;;;;4957440;28;20044;-80
2021/12/02 05:27:09;;;;;;;4.28;0.90;;;2.30;99.90;;;;;;4957403;28;20496;-81
2021/12/02 05:29:35;;;;;;;4.15;0.82;;;2.30;99.90;;;;;;4971347;28;20810;-81
2021/12/02 05:32:01;;;;;;;3.08;0.90;;;2.30;99.90;;;;;;4955768;28;20079;-80
2021/12/02 05:34:27;;;;;;;3.25;0.90;;;2.30;99.90;;;;;;4958762;28;20055;-81
2021/12/02 05:36:53;;;;;;;3.40;0.75;;;2.30;99.90;;;;;;4964306;28;20123;-81
2021/12/02 05:39:19;;;;;;;3.40;0.80;;;2.30;99.90;;;;;;4950061;28;20117;-80
2021/12/02 05:41:45;;;;;;;4.70;1.23;;;2.30;99.90;;;;;;4958230;28;20044;-80
2021/12/02 05:44:11;;;;;;;2.22;0.70;;;2.30;99.90;;;;;;4955484;28;20379;-80
2021/12/02 05:46:37;;;;;;;2.70;0.85;;;2.30;99.90;;;;;;4958285;28;20109;-80
2021/12/02 05:49:03;;;;;;;4.10;0.68;;;2.30;99.90;;;;;;4971517;28;20041;-80
2021/12/02 05:51:29;;;;;;;2.13;0.60;;;2.30;99.90;;;;;;4956694;28;20048;-81
2021/12/02 05:53:54;;;;;;;3.20;0.85;;;2.30;99.90;;;;;;4978862;28;20049;-80
2021/12/02 05:56:20;;;;;;;4.90;0.80;;;2.30;99.90;;;;;;4959267;28;20558;-80
2021/12/02 05:58:46;;;;;;;5.22;0.90;;;2.30;99.90;;;;;;4957955;28;20486;-80
2021/12/02 06:01:12;;;;;;;4.22;0.85;;;2.30;99.90;;;;;;4957238;28;20324;-80
2021/12/02 06:03:40;;;;;;;5.78;0.85;;;2.30;99.90;;;;;;4957836;28;20353;-80
2021/12/02 06:06:06;;;;;;;2.22;0.70;;;2.20;99.90;;;;;;4956953;28;20476;-81
2021/12/02 06:08:33;;;;;;;2.92;0.80;;;2.20;99.90;;;;;;4962872;28;20135;-80
2021/12/02 06:10:59;;;;;;;3.00;0.88;;;2.20;99.90;;;;;;4960723;28;20151;-80
2021/12/02 06:13:26;;;;;;;4.05;0.90;;;2.20;99.90;;;;;;4945214;28;20483;-80
2021/12/02 06:15:52;;;;;;;4.10;0.80;;;2.10;99.90;;;;;;4976198;28;20516;-81
2021/12/02 06:18:18;;;;;;;2.63;0.73;;;2.10;99.90;;;;;;4961329;28;20044;-80
2021/12/02 06:20:50;;;;;;;4.53;0.80;;;2.10;99.90;;;;;;4962739;28;20043;-80
2021/12/02 06:23:16;;;;;;;4.22;0.80;;;2.10;99.90;;;;;;4961399;28;20131;-81
2021/12/02 06:25:45;;;;;;;3.67;0.82;;;2.00;99.90;;;;;;4966606;28;20036;-81
2021/12/02 06:28:11;;;;;;;3.47;1.00;;;2.10;99.90;;;;;;4975426;28;20825;-80
2021/12/02 06:30:37;;;;;;;3.15;0.90;;;2.20;99.90;;;;;;4963388;28;20657;-80
2021/12/02 06:33:03;;;;;;;2.47;0.90;;;2.10;99.90;;;;;;4974866;28;20056;-81
2021/12/02 06:35:29;;;;;;;5.13;0.90;;;2.10;99.90;;;;;;4954070;28;20053;-81
2021/12/02 06:37:56;;;;;;;4.50;1.00;;;2.00;99.90;;;;;;4982098;28;20045;-80
2021/12/02 06:40:21;;;;;;;2.08;0.70;;;2.00;99.90;;;;;;4955876;28;20052;-81
2021/12/02 06:42:47;;;;;;;3.17;1.00;;;2.00;99.90;;;;;;4978665;28;20051;-81
2021/12/02 06:45:14;;;;;;;3.22;1.00;;;2.00;99.90;;;;;;4961539;28;20048;-81
2021/12/02 06:47:40;;;;;;;4.22;1.10;;;2.00;99.90;;;;;;4958675;28;20236;-81
2021/12/02 06:50:16;;;;;;;3.10;1.10;;;2.00;99.90;;;;;;4978406;28;20056;-81
2021/12/02 06:52:42;;;;;;;3.88;1.45;;;2.10;99.90;;;;;;4979943;28;20125;-81
2021/12/02 06:55:09;;;;;;;3.05;1.15;;;2.10;99.90;;;;;;4984789;28;20623;-81
2021/12/02 06:57:35;;;;;;;3.83;1.00;;;2.20;99.90;;;;;;4961771;28;20459;-81
2021/12/02 07:00:03;;;;;;;5.25;1.17;;;2.20;99.90;;;;;;4954501;28;20052;-81
2021/12/02 07:02:30;;;;;;;4.43;1.00;;;2.30;99.90;;;;;;4955052;28;20549;-81
2021/12/02 07:04:58;;;;;;;5.30;1.20;;;2.20;99.90;;;;;;4959957;28;20049;-81
2021/12/02 07:07:24;;;;;;;4.43;1.10;;;2.30;99.90;;;;;;4952483;28;20836;-81
2021/12/02 07:09:50;;;;;;;8.35;1.50;;;2.30;99.90;;;;;;4970290;28;20095;-81
2021/12/02 07:12:18;;;;;;;3.30;1.10;;;2.30;99.90;;;;;;4953859;28;20053;-81
2021/12/02 07:14:47;;;;;;;4.30;1.27;;;2.30;99.90;;;;;;4953596;28;20055;-80
2021/12/02 07:17:13;;;;;;;2.90;1.10;;;2.30;99.90;;;;;;4961435;28;20049;-81
2021/12/02 07:19:40;;;;;;;5.57;1.17;;;2.30;99.90;;;;;;4970193;28;20413;-80
2021/12/02 07:22:06;;;;;;;4.15;1.17;;;2.30;99.90;;;;;;4979147;28;20128;-81
2021/12/02 07:24:32;;;;;;;5.40;1.13;;;2.30;99.90;;;;;;4957353;28;20099;-80
2021/12/02 07:26:58;;;;;;;4.22;1.20;;;2.30;99.90;;;;;;4945043;28;20537;-81
2021/12/02 07:29:24;;;;;;;4.30;1.13;;;2.40;99.90;;;;;;4975090;28;20115;-80
2021/12/02 07:31:52;;;;;;;4.10;1.00;;;2.40;99.90;;;;;;4958855;28;20053;-80
2021/12/02 07:34:23;;;;;;;5.78;1.10;;;2.40;99.90;;;;;;4959156;28;20060;-79
2021/12/02 07:36:49;;;;;;;5.20;1.10;;;2.50;99.90;;;;;;4966262;28;20403;-80
2021/12/02 07:39:15;;;;;;;2.83;1.00;;;2.60;99.90;;;;;;4952839;28;20071;-81
2021/12/02 07:41:42;;;;;;;3.45;0.90;;;2.60;99.90;;;;;;4984548;28;20045;-81
2021/12/02 07:44:10;;;;;;;4.57;1.08;;;2.60;99.90;;;;;;4962362;28;20494;-79
2021/12/02 07:46:36;;;;;;;3.65;1.10;;;2.70;99.90;;;;;;4962670;28;20068;-80
2021/12/02 07:49:02;;;;;;;4.57;1.30;;;2.70;99.90;;;;;;4961495;28;20795;-81
2021/12/02 07:51:30;;;;;;;5.82;1.40;;;2.60;99.90;;;;;;4988657;28;20044;-81
2021/12/02 07:54:01;;;;;;;4.88;1.45;;;2.60;99.90;;;;;;4983628;28;20201;-81
2021/12/02 07:56:32;;;;;;;3.75;1.30;;;2.70;99.90;;;;;;4954551;28;20167;-78
2021/12/02 07:58:57;;;;;;;4.90;1.52;;;2.70;99.90;;;;;;4962009;28;20174;-80
2021/12/02 08:01:23;;;;;;;2.70;1.35;;;2.70;99.90;;;;;;4966814;28;20853;-80
2021/12/02 08:03:51;;;;;;;3.78;1.50;;;2.70;99.90;;;;;;4988273;28;20060;-80
2021/12/02 08:06:17;;;;;;;3.28;1.48;;;2.60;99.90;;;;;;4961640;28;20266;-79
2021/12/02 08:08:45;;;;;;;9.52;1.90;;;2.60;99.90;;;;;;4968091;28;20040;-80
2021/12/02 08:11:12;;;;;;;5.38;1.90;;;2.70;99.90;;;;;;4959945;28;20766;-80
2021/12/02 08:13:38;;;;;;;4.65;1.85;;;2.70;99.90;;;;;;4965334;28;20479;-79
2021/12/02 08:16:07;;;;;;;3.75;2.05;;;2.80;99.90;;;;;;4957647;28;20067;-80
2021/12/02 08:18:33;;;;;;;3.72;2.05;;;2.70;99.90;;;;;;4956357;28;20124;-80
2021/12/02 08:21:00;;;;;;;4.03;2.00;;;2.70;99.90;;;;;;4968898;28;20049;-81
2021/12/02 08:23:27;;;;;;;4.00;2.03;;;2.60;99.90;;;;;;4960763;28;21078;-80
2021/12/02 08:25:54;;;;;;;3.70;1.92;;;2.70;99.90;;;;;;4986112;28;20048;-80
2021/12/02 08:28:20;;;;;;;5.25;2.10;;;2.80;99.90;;;;;;4966963;28;20153;-80
2021/12/02 08:30:46;;;;;;;11.30;2.60;;;2.80;99.90;;;;;;4947791;28;20836;-81
2021/12/02 08:33:14;;;;;;;5.82;2.50;;;2.80;99.90;;;;;;4962176;28;20127;-80
2021/12/02 08:35:40;;;;;;;4.80;2.38;;;2.90;99.90;;;;;;4975019;28;20048;-80
2021/12/02 08:38:10;;;;;;;4.63;2.20;;;3.10;99.90;;;;;;4961570;28;20985;-79
2021/12/02 08:40:37;;;;;;;5.80;2.42;;;3.10;99.90;;;;;;4960224;28;20565;-80
2021/12/02 08:43:05;;;;;;;4.97;2.40;;;3.10;99.90;;;;;;4981449;28;20562;-79
2021/12/02 08:45:33;;;;;;;6.47;2.35;;;3.10;99.90;;;;;;4969935;28;20048;-80
2021/12/02 08:48:00;;;;;;;4.45;2.47;;;3.10;99.90;;;;;;4963371;28;20460;-80
2021/12/02 08:50:27;;;;;;;5.72;2.70;;;3.00;99.90;;;;;;4967780;28;20502;-78
2021/12/02 08:52:54;;;;;;;6.60;2.95;;;3.20;99.90;;;;;;4996072;28;20040;-80
2021/12/02 08:55:22;;;;;;;4.80;2.47;;;3.10;99.90;;;;;;4958056;28;20423;-81
2021/12/02 08:57:49;;;;;;;7.30;2.70;;;3.10;99.90;;;;;;4963527;28;20552;-80
2021/12/02 09:00:20;;;;;;;5.35;2.47;;;3.20;99.90;;;;;;4977907;28;20460;-80
2021/12/02 09:02:46;;;;;;;5.13;2.90;;;3.30;99.90;;;;;;4968464;28;20048;-81
2021/12/02 09:05:13;;;;;;;8.45;2.80;;;3.30;99.90;;;;;;4979287;28;20048;-80
2021/12/02 09:07:39;;;;;;;5.75;2.75;;;3.40;99.90;;;;;;4976005;28;20433;-80
2021/12/02 09:10:07;;;;;;;5.53;2.67;;;3.50;99.90;;;;;;4970722;28;20888;-81
2021/12/02 09:12:34;;;;;;;6.53;3.03;;;3.50;99.90;;;;;;4946234;28;20137;-81
2021/12/02 09:15:00;;;;;;;7.45;3.08;;;3.60;99.90;;;;;;4961262;28;20241;-81
2021/12/02 09:17:26;;;;;;;6.70;3.20;;;3.60;99.90;;;;;;4944966;28;20040;-80
2021/12/02 09:19:52;;;;;;;9.25;3.88;;;3.60;99.90;;;;;;4944612;28;20110;-81
2021/12/02 09:22:18;;;;;;;10.05;3.60;;;3.70;99.90;;;;;;4977381;28;20048;-80
2021/12/02 09:24:44;;;;;;;8.98;4.05;;;3.80;99.90;;;;;;4985865;28;20052;-80
2021/12/02 09:27:10;;;;;;;8.52;3.97;;;3.80;99.90;;;;;;4991515;28;20048;-80
2021/12/02 09:29:36;;;;;;;8.93;4.10;;;3.80;99.90;;;;;;4955048;28;20175;-81
2021/12/02 09:32:03;;;;;;;9.38;4.13;;;3.80;99.90;;;;;;4965936;28;20078;-81
2021/12/02 09:34:29;;;;;;;7.60;3.88;;;3.80;99.90;;;;;;4959442;28;20068;-80
2021/12/02 09:36:56;;;;;;;10.38;4.15;;;3.70;99.90;;;;;;4985123;28;20045;-80
2021/12/02 09:39:28;;;;;;;9.88;4.18;;;3.80;99.90;;;;;;4976396;28;20075;-80
2021/12/02 09:41:54;;;;;;;7.55;3.55;;;3.70;99.90;;;;;;4943573;28;20137;-80
2021/12/02 09:44:19;;;;;;;9.00;3.47;;;3.70;99.90;;;;;;4962404;28;20056;-81
2021/12/02 09:46:45;;;;;;;7.20;3.45;;;3.70;99.90;;;;;;4962257;28;20048;-80
2021/12/02 09:49:15;;;;;;;7.75;3.35;;;3.70;99.90;;;;;;4987991;28;20596;-80
2021/12/02 09:54:42;;;;;;;6.63;3.38;;;3.70;99.90;;;;;;4972911;28;20044;-80
2021/12/02 09:57:12;;;;;;;5.38;2.45;;;3.80;99.90;;;;;;4963809;28;20460;-81
2021/12/02 09:59:49;;;;;;;5.28;2.25;;;3.80;99.90;;;;;;4975238;28;20067;-80
2021/12/02 10:02:18;;;;;;;4.32;2.30;;;3.80;99.90;;;;;;4973462;28;20426;-80
2021/12/02 10:04:51;;;;;;;4.38;1.98;;;3.90;99.90;;;;;;4968839;28;20048;-80
2021/12/02 10:07:33;;;;;;;4.70;1.92;;;4.00;99.90;;;;;;4958531;28;20072;-81
2021/12/02 10:13:27;;;;;;;4.70;1.80;;;4.10;99.90;;;;;;4931583;28;20771;-81
2021/12/02 10:16:15;;;;;;;5.32;1.75;;;4.20;99.90;;;;;;4931372;28;20460;-80
2021/12/02 10:22:06;;;;;;;6.28;2.22;;;4.50;99.90;;;;;;4958963;28;20728;-79
2021/12/02 10:24:31;;;;;;;5.47;2.00;;;4.50;99.90;;;;;;4959311;28;20067;-80
2021/12/02 10:27:05;;;;;;;4.68;2.00;;;4.60;99.90;;;;;;4966954;28;20051;-80
2021/12/02 10:29:36;;;;;;;5.10;2.10;;;4.60;99.90;;;;;;4964938;28;20127;-81
2021/12/02 10:32:12;;;;;;;5.75;2.10;;;4.50;99.90;;;;;;4979939;28;20568;-80
2021/12/02 10:34:49;;;;;;;6.30;1.83;;;4.60;99.90;;;;;;4962945;28;20532;-79
2021/12/02 10:37:18;;;;;;;5.55;2.03;;;4.60;99.90;;;;;;4962756;28;20510;-80
2021/12/02 10:39:56;;;;;;;5.90;1.80;;;4.60;99.90;;;;;;4962755;28;20844;-80
2021/12/02 10:42:23;;;;;;;3.13;1.77;;;4.60;99.90;;;;;;4957234;28;20126;-80
2021/12/02 10:44:49;;;;;;;6.03;2.30;;;4.60;99.90;;;;;;4955160;28;20213;-79
2021/12/02 10:47:16;;;;;;;6.65;2.40;;;4.70;99.90;;;;;;4961973;28;20182;-81
2021/12/02 10:49:45;;;;;;;6.93;2.38;;;4.70;99.90;;;;;;4965882;28;20519;-79
2021/12/02 10:52:28;;;;;;;4.75;2.10;;;4.70;99.90;;;;;;4960140;28;20088;-80
2021/12/02 10:54:58;;;;;;;;;;;4.80;99.90;;;;;;4957089;28;20219;-82
2021/12/02 10:57:26;;;;;;;5.00;2.35;;;4.80;99.90;;;;;;4989014;28;20399;-80
2021/12/02 10:59:53;;;;;;;8.73;2.25;;;4.90;99.90;;;;;;4974230;28;20143;-81
2021/12/02 11:02:35;;;;;;;4.38;2.00;;;4.90;99.90;;;;;;4954041;28;20064;-81
2021/12/02 11:05:06;;;;;;;5.53;2.00;;;4.90;99.90;;;;;;4953445;28;20834;-80
2021/12/02 11:07:39;;;;;;;4.78;1.90;;;5.00;99.90;;;;;;4961970;28;20284;-81
2021/12/02 11:10:15;;;;;;;4.60;1.90;;;4.90;99.90;;;;;;4958530;28;20479;-81
2021/12/02 11:12:55;;;;;;;6.68;1.90;;;5.00;99.90;;;;;;4957861;28;20064;-81
2021/12/02 11:15:29;;;;;;;4.45;1.90;;;5.00;99.90;;;;;;4959484;28;20897;-82
2021/12/02 11:18:07;;;;;;;5.15;1.92;;;5.00;99.90;;;;;;4939915;28;20056;-81
2021/12/02 11:20:40;;;;;;;2.90;1.60;;;5.10;99.90;;;;;;4958709;28;20705;-81
2021/12/02 11:23:13;;;;;;;5.63;1.80;;;5.20;99.90;;;;;;4977797;28;20056;-82
2021/12/02 11:26:00;;;;;;;3.47;1.60;;;5.20;99.90;;;;;;4961533;28;20049;-81
2021/12/02 11:28:35;;;;;;;4.53;1.50;;;5.20;99.90;;;;;;4964362;28;20060;-80
2021/12/02 11:31:17;;;;;;;5.50;1.40;;;5.30;99.90;;;;;;4943052;28;20063;-82
2021/12/02 11:33:45;;;;;;;5.07;1.20;;;5.30;99.90;;;;;;4956421;28;20517;-80
2021/12/02 11:36:20;;;;;;;4.70;1.52;;;5.20;99.90;;;;;;4958195;28;20056;-80
2021/12/02 11:38:46;;;;;;;5.88;1.20;;;5.40;99.90;;;;;;4957621;28;20122;-81
2021/12/02 11:41:13;;;;;;;3.83;1.23;;;5.40;99.90;;;;;;4954014;28;20083;-81
2021/12/02 11:43:40;;;;;;;5.07;1.35;;;5.30;99.90;;;;;;4958349;28;20057;-81
2021/12/02 11:46:08;;;;;;;4.05;1.00;;;5.30;99.90;;;;;;4979004;28;20049;-82
2021/12/02 11:48:38;;;;;;;5.10;1.50;;;5.10;99.90;;;;;;4959707;28;20382;-79
2021/12/02 11:51:08;;;;;;;2.75;1.23;;;5.00;99.90;;;;;;4958428;28;20621;-79
2021/12/02 11:53:34;;;;;;;3.75;1.08;;;4.70;99.90;;;;;;4957696;28;20053;-79
2021/12/02 11:56:05;;;;;;;2.65;0.90;;;4.40;99.90;;;;;;4987280;28;20622;-80
2021/12/02 11:58:31;;;;;;;44.75;3.72;;;4.40;99.90;;;;;;4951793;28;20055;-80
2021/12/02 12:00:58;;;;;;;2.45;1.10;;;4.40;99.90;;;;;;4955977;28;20584;-80
2021/12/02 12:03:34;;;;;;;16.55;1.65;;;4.30;99.90;;;;;;4957388;28;20315;-81
2021/12/02 12:06:13;;;;;;;8.00;0.95;;;4.40;99.90;;;;;;4958426;28;20222;-80
2021/12/02 12:08:41;;;;;;;5.97;0.93;;;4.40;99.90;;;;;;4960720;28;21131;-81
2021/12/02 12:11:23;;;;;;;6.43;0.98;;;4.50;99.90;;;;;;4987777;28;20048;-80
2021/12/02 12:14:03;;;;;;;2.10;0.70;;;4.30;99.90;;;;;;4957941;28;20048;-80
2021/12/02 12:16:35;;;;;;;3.00;1.00;;;4.30;99.90;;;;;;4968441;28;20044;-81
2021/12/02 12:19:21;;;;;;;2.55;0.80;;;4.30;99.90;;;;;;4959910;28;20045;-81
2021/12/02 12:21:56;;;;;;;2.55;0.93;;;4.20;99.90;;;;;;4956800;28;20428;-81
2021/12/02 12:24:52;;;;;;;2.08;0.70;;;4.10;99.90;;;;;;4977793;28;20488;-81
2021/12/02 12:27:27;;;;;;;4.05;0.90;;;4.00;99.90;;;;;;4949606;28;20057;-81
2021/12/02 12:30:18;;;;;;;2.97;0.80;;;4.10;99.90;;;;;;4959400;28;20562;-81
2021/12/02 12:38:22;;;;;;;7.47;0.82;;;4.00;99.90;;;;;;4960528;28;20056;-81
2021/12/02 12:40:53;;;;;;;3.63;0.77;;;4.00;99.90;;;;;;4972586;28;20045;-81
2021/12/02 12:43:23;;;;;;;3.25;0.68;;;4.10;99.90;;;;;;4977171;28;20193;-81
2021/12/02 12:45:49;;;;;;;5.93;1.15;;;4.10;99.90;;;;;;4981165;28;20596;-81
2021/12/02 12:48:18;;;;;;;3.47;0.80;;;4.10;99.90;;;;;;4975923;28;20048;-80
2021/12/02 12:50:47;;;;;;;3.70;0.80;;;4.10;99.90;;;;;;4955866;28;20432;-81
2021/12/02 12:53:19;;;;;;;5.47;0.90;;;4.10;99.90;;;;;;4959901;28;20064;-81
2021/12/02 12:55:54;;;;;;;6.00;0.80;;;4.10;99.90;;;;;;4963969;28;20995;-80
2021/12/02 12:58:29;;;;;;;2.20;0.70;;;4.20;99.90;;;;;;4979740;28;20117;-81
2021/12/02 13:01:21;;;;;;;5.65;0.98;;;4.10;99.90;;;;;;4964481;28;20364;-80
2021/12/02 13:04:08;;;;;;;2.60;0.88;;;4.20;99.90;;;;;;4977126;28;20639;-80
2021/12/02 13:06:47;;;;;;;4.75;0.80;;;4.20;99.90;;;;;;4984652;28;20603;-80
2021/12/02 13:09:37;;;;;;;2.10;0.70;;;4.40;99.90;;;;;;4976605;28;21199;-81
2021/12/02 13:12:04;;;;;;;1.20;0.60;;;4.20;99.90;;;;;;4981762;28;20063;-81
2021/12/02 13:14:30;;;;;;;1.90;0.70;;;4.10;99.90;;;;;;4982957;28;20422;-81
2021/12/02 13:16:56;;;;;;;3.85;0.70;;;4.10;99.90;;;;;;4962471;28;20502;-81
2021/12/02 13:19:22;;;;;;;4.00;0.70;;;4.10;99.90;;;;;;4967045;28;20050;-81
2021/12/02 13:21:58;;;;;;;2.03;0.68;;;4.00;99.90;;;;;;4969956;28;20064;-81
2021/12/02 13:24:35;;;;;;;2.97;0.70;;;4.10;99.90;;;;;;4947998;28;20541;-81
2021/12/02 13:27:05;;;;;;;3.90;0.90;;;3.90;99.90;;;;;;4951350;28;20684;-81
2021/12/02 13:29:34;;;;;;;4.32;1.17;;;3.90;99.90;;;;;;4983847;28;20573;-81
2021/12/02 13:32:10;;;;;;;4.45;1.10;;;3.90;99.90;;;;;;4981483;28;20050;-80
2021/12/02 13:34:37;;;;;;;2.90;1.20;;;3.70;99.90;;;;;;4974885;28;20553;-80
2021/12/02 13:37:06;;;;;;;4.88;1.60;;;3.70;99.90;;;;;;4963480;28;20067;-80
2021/12/02 13:39:34;;;;;;;3.10;1.83;;;3.70;99.90;;;;;;4964945;28;20052;-80
2021/12/02 13:42:08;;;;;;;4.90;2.63;;;3.70;99.90;;;;;;4984837;28;20824;-80